createdAt,value
2023-03-26T00:01:37.529Z,0.35
2023-03-26T00:04:06.937Z,0.10
2023-03-26T00:06:38.943Z,0.10
2023-03-26T00:09:09.342Z,0.10
2023-03-26T00:11:36.447Z,0.30
2023-03-26T00:14:03.756Z,0.43
2023-03-26T00:16:32.503Z,0.10
2023-03-26T00:19:01.333Z,0.10
2023-03-26T00:21:30.348Z,0.20
2023-03-26T00:24:00.934Z,0.20
2023-03-26T00:26:29.620Z,0.30
2023-03-26T00:28:57.851Z,0.20
2023-03-26T00:31:24.759Z,0.20
2023-03-26T00:33:56.789Z,0.20
2023-03-26T00:36:26.832Z,0.20
2023-03-26T00:38:54.639Z,0.10
2023-03-26T00:41:26.329Z,0.17
2023-03-26T00:43:56.740Z,0.30
2023-03-26T00:46:29.196Z,0.13
2023-03-26T00:48:59.854Z,0.20
2023-03-26T00:51:28.705Z,0.10
2023-03-26T00:53:57.472Z,0.20
2023-03-26T00:56:25.068Z,0.20
2023-03-26T00:58:52.137Z,0.40
2023-03-26T01:01:27.929Z,0.20
2023-03-26T01:04:08.686Z,0.10
2023-03-26T01:06:38.892Z,0.10
2023-03-26T01:09:18.730Z,0.17
2023-03-26T01:11:45.800Z,0.80
2023-03-26T01:14:17.358Z,0.13
2023-03-26T01:16:53.496Z,0.10
2023-03-26T01:19:42.406Z,0.15
2023-03-26T01:22:12.036Z,0.20
2023-03-26T01:24:40.025Z,0.20
2023-03-26T01:27:51.738Z,0.40
2023-03-26T01:30:21.623Z,0.20
2023-03-26T01:33:06.897Z,0.30
2023-03-26T01:35:52.476Z,0.10
2023-03-26T01:38:35.607Z,0.20
2023-03-26T01:41:19.789Z,0.17
2023-03-26T01:44:09.244Z,0.30
2023-03-26T01:46:36.561Z,0.20
2023-03-26T01:49:05.235Z,0.25
2023-03-26T01:51:34.854Z,0.47
2023-03-26T01:54:06.008Z,0.47
2023-03-26T01:57:01.903Z,0.40
2023-03-26T01:59:50.693Z,0.40
2023-03-26T02:02:30.943Z,0.30
2023-03-26T02:05:04.481Z,0.32
2023-03-26T02:07:40.516Z,0.70
2023-03-26T02:10:13.857Z,0.73
2023-03-26T02:12:42.921Z,1.05
2023-03-26T02:15:11.538Z,0.40
2023-03-26T02:17:40.432Z,0.60
2023-03-26T02:20:13.964Z,0.88
2023-03-26T02:22:45.669Z,0.68
2023-03-26T02:25:17.948Z,0.60
2023-03-26T02:27:45.820Z,0.30
2023-03-26T02:30:25.793Z,0.80
2023-03-26T02:32:54.310Z,1.77
2023-03-26T02:35:22.556Z,0.50
2023-03-26T02:37:51.006Z,0.68
2023-03-26T02:40:21.232Z,0.60
2023-03-26T02:42:49.074Z,0.40
2023-03-26T02:45:16.184Z,0.65
2023-03-26T02:47:43.433Z,0.43
2023-03-26T02:50:12.030Z,0.50
2023-03-26T02:52:39.054Z,0.55
2023-03-26T02:55:07.371Z,0.40
2023-03-26T02:57:34.649Z,0.50
2023-03-26T03:00:04.917Z,0.52
2023-03-26T03:02:31.718Z,0.70
2023-03-26T03:05:01.643Z,0.73
2023-03-26T03:07:29.142Z,0.30
2023-03-26T03:09:56.201Z,0.50
2023-03-26T03:12:22.973Z,0.38
2023-03-26T03:14:50.001Z,0.30
2023-03-26T03:17:16.820Z,0.35
2023-03-26T03:19:43.856Z,0.20
2023-03-26T03:22:10.748Z,0.47
2023-03-26T03:24:38.714Z,0.45
2023-03-26T03:27:05.654Z,0.38
2023-03-26T03:29:34.403Z,0.40
2023-03-26T03:32:02.193Z,0.50
2023-03-26T03:34:29.304Z,0.38
2023-03-26T03:36:56.152Z,0.52
2023-03-26T03:39:23.251Z,0.50
2023-03-26T03:41:50.349Z,0.60
2023-03-26T03:44:17.396Z,0.90
2023-03-26T03:46:44.230Z,0.40
2023-03-26T03:49:11.374Z,0.73
2023-03-26T03:51:38.210Z,0.50
2023-03-26T03:54:08.519Z,1.10
2023-03-26T03:56:36.121Z,0.80
2023-03-26T03:59:03.225Z,0.55
2023-03-26T04:01:30.838Z,0.93
2023-03-26T04:03:58.812Z,0.50
2023-03-26T04:06:25.976Z,0.35
2023-03-26T04:08:53.054Z,0.20
2023-03-26T04:11:23.242Z,0.32
2023-03-26T04:13:50.313Z,0.45
2023-03-26T04:16:18.253Z,0.55
2023-03-26T04:18:46.409Z,0.20
2023-03-26T04:21:16.174Z,0.30
2023-03-26T04:23:43.348Z,0.70
2023-03-26T04:26:16.272Z,0.43
2023-03-26T04:28:53.326Z,0.30
2023-03-26T04:31:24.343Z,0.30
2023-03-26T04:33:55.214Z,0.50
2023-03-26T04:36:32.273Z,0.80
2023-03-26T04:39:03.225Z,0.40
2023-03-26T04:41:30.254Z,0.57
2023-03-26T04:43:57.289Z,0.60
2023-03-26T04:46:24.346Z,0.70
2023-03-26T04:48:52.476Z,0.93
2023-03-26T04:51:22.019Z,0.60
2023-03-26T04:54:00.345Z,0.60
2023-03-26T04:56:51.365Z,0.63
2023-03-26T04:59:26.135Z,0.93
2023-03-26T05:01:53.793Z,0.70
2023-03-26T05:04:21.094Z,1.25
2023-03-26T05:06:48.201Z,0.52
2023-03-26T05:09:15.735Z,0.60
2023-03-26T05:11:42.729Z,0.43
2023-03-26T05:14:09.913Z,0.30
2023-03-26T05:16:37.549Z,0.50
2023-03-26T05:19:04.873Z,0.40
2023-03-26T05:21:31.690Z,0.55
2023-03-26T05:23:58.801Z,0.70
2023-03-26T05:26:26.061Z,0.55
2023-03-26T05:28:53.094Z,0.65
2023-03-26T05:31:21.375Z,0.57
2023-03-26T05:33:49.152Z,0.60
2023-03-26T05:36:17.285Z,0.68
2023-03-26T05:38:49.335Z,0.52
2023-03-26T05:41:17.287Z,0.30
2023-03-26T05:43:49.003Z,0.57
2023-03-26T05:46:16.430Z,0.57
2023-03-26T05:48:43.755Z,0.40
2023-03-26T05:51:10.624Z,0.80
2023-03-26T05:53:37.729Z,0.73
2023-03-26T05:56:04.820Z,0.70
2023-03-26T05:58:33.749Z,0.52
2023-03-26T06:01:09.459Z,0.45
2023-03-26T06:03:39.732Z,0.70
2023-03-26T06:06:15.506Z,0.60
2023-03-26T06:08:48.864Z,0.68
2023-03-26T06:11:29.682Z,0.40
2023-03-26T06:13:56.844Z,0.60
2023-03-26T06:16:26.957Z,0.30
2023-03-26T06:18:56.176Z,0.40
2023-03-26T06:21:23.939Z,0.35
2023-03-26T06:23:51.806Z,0.25
2023-03-26T06:26:18.916Z,0.50
2023-03-26T06:28:46.181Z,0.28
2023-03-26T06:31:13.072Z,0.25
2023-03-26T06:33:40.397Z,0.35
2023-03-26T06:36:07.557Z,0.25
2023-03-26T06:38:34.774Z,0.20
2023-03-26T06:41:06.280Z,0.93
2023-03-26T06:43:33.989Z,0.35
2023-03-26T06:46:01.673Z,0.30
2023-03-26T06:48:28.863Z,0.20
2023-03-26T06:50:55.749Z,0.35
2023-03-26T06:53:23.154Z,0.35
2023-03-26T06:55:50.036Z,0.52
2023-03-26T06:58:17.101Z,0.40
2023-03-26T07:00:44.017Z,0.25
2023-03-26T07:03:11.563Z,0.20
2023-03-26T07:05:41.195Z,0.60
2023-03-26T07:08:08.257Z,0.40
2023-03-26T07:10:35.200Z,0.43
2023-03-26T07:13:02.263Z,0.30
2023-03-26T07:15:29.489Z,0.60
2023-03-26T07:17:56.677Z,0.90
2023-03-26T07:20:23.798Z,0.40
2023-03-26T07:22:51.572Z,0.22
2023-03-26T07:25:19.454Z,0.40
2023-03-26T07:28:04.665Z,0.47
2023-03-26T07:30:44.163Z,0.20
2023-03-26T07:33:21.318Z,0.55
2023-03-26T07:36:17.018Z,0.40
2023-03-26T07:38:49.993Z,0.30
2023-03-26T07:41:38.263Z,0.65
2023-03-26T07:44:20.055Z,0.40
2023-03-26T07:46:48.108Z,0.20
2023-03-26T07:49:17.906Z,0.30
2023-03-26T07:51:44.924Z,0.30
2023-03-26T07:54:12.293Z,0.28
2023-03-26T07:56:51.692Z,0.22
2023-03-26T07:59:24.395Z,0.30
2023-03-26T08:02:09.850Z,0.20
2023-03-26T08:04:49.522Z,0.28
2023-03-26T08:07:34.324Z,0.20
2023-03-26T08:10:21.114Z,0.40
2023-03-26T08:13:06.144Z,0.45
2023-03-26T08:16:08.101Z,0.70
2023-03-26T08:19:07.974Z,0.20
2023-03-26T08:21:45.683Z,0.35
2023-03-26T08:24:43.598Z,0.52
2023-03-26T08:27:41.452Z,0.30
2023-03-26T08:30:08.399Z,0.93
2023-03-26T08:32:35.732Z,0.95
2023-03-26T08:35:04.041Z,0.40
2023-03-26T08:37:31.232Z,0.50
2023-03-26T08:39:58.088Z,0.50
2023-03-26T08:42:37.168Z,0.30
2023-03-26T08:45:29.780Z,0.28
2023-03-26T08:48:18.253Z,0.40
2023-03-26T08:51:07.849Z,0.50
2023-03-26T08:54:03.507Z,0.70
2023-03-26T08:56:42.367Z,0.68
2023-03-26T08:59:37.273Z,0.50
2023-03-26T09:02:22.081Z,0.60
2023-03-26T09:05:11.095Z,0.73
2023-03-26T09:08:02.157Z,0.60
2023-03-26T09:10:48.093Z,0.52
2023-03-26T09:13:45.764Z,0.50
2023-03-26T09:16:18.611Z,0.60
2023-03-26T09:19:06.707Z,0.70
2023-03-26T09:21:54.905Z,0.52
2023-03-26T09:24:35.513Z,0.63
2023-03-26T09:27:40.809Z,0.60
2023-03-26T09:30:28.436Z,0.55
2023-03-26T09:33:23.178Z,0.65
2023-03-26T09:35:54.211Z,0.50
2023-03-26T09:38:33.177Z,0.90
2023-03-26T09:41:18.261Z,0.50
2023-03-26T09:44:22.347Z,0.40
2023-03-26T09:47:12.876Z,0.70
2023-03-26T09:49:58.435Z,0.50
2023-03-26T09:53:02.620Z,0.63
2023-03-26T09:55:42.236Z,2.03
2023-03-26T09:58:40.849Z,0.30
2023-03-26T10:01:14.656Z,0.50
2023-03-26T10:03:57.709Z,0.30
2023-03-26T10:06:51.710Z,0.90
2023-03-26T10:09:39.655Z,0.30
2023-03-26T10:12:09.798Z,0.20
2023-03-26T10:14:54.849Z,0.30
2023-03-26T10:17:25.797Z,0.20
2023-03-26T10:20:04.875Z,0.20
2023-03-26T10:22:42.456Z,0.30
2023-03-26T10:25:24.663Z,0.65
2023-03-26T10:28:20.944Z,0.20
2023-03-26T10:31:15.342Z,0.17
2023-03-26T10:33:57.734Z,0.30
2023-03-26T10:36:34.380Z,0.43
2023-03-26T10:39:36.759Z,0.30
2023-03-26T10:42:43.527Z,0.38
2023-03-26T10:45:47.539Z,0.60
2023-03-26T10:48:56.609Z,0.30
2023-03-26T10:51:51.448Z,0.52
2023-03-26T10:54:27.409Z,0.88
2023-03-26T10:56:56.065Z,0.40
2023-03-26T10:59:27.406Z,0.35
2023-03-26T11:02:16.370Z,0.40
2023-03-26T11:05:14.315Z,1.15
2023-03-26T11:07:47.295Z,0.70
2023-03-26T11:10:25.008Z,0.85
2023-03-26T11:13:16.059Z,0.38
2023-03-26T11:16:03.715Z,0.68
2023-03-26T11:19:08.102Z,0.80
2023-03-26T11:21:53.813Z,0.60
2023-03-26T11:24:41.798Z,0.50
2023-03-26T11:27:35.001Z,0.55
2023-03-26T11:30:11.173Z,1.02
2023-03-26T11:32:46.143Z,0.65
2023-03-26T11:35:39.827Z,0.50
2023-03-26T11:38:28.967Z,0.52
2023-03-26T11:40:58.887Z,0.40
2023-03-26T11:43:35.779Z,0.50
2023-03-26T11:46:14.516Z,0.40
2023-03-26T11:48:53.344Z,0.35
2023-03-26T11:51:36.773Z,0.50
2023-03-26T11:54:05.666Z,0.50
2023-03-26T11:56:35.924Z,0.70
2023-03-26T11:59:09.370Z,0.47
2023-03-26T12:01:50.736Z,0.40
2023-03-26T12:04:26.413Z,0.50
2023-03-26T12:06:59.734Z,0.65
2023-03-26T12:09:27.008Z,0.57
2023-03-26T12:12:01.004Z,0.50
2023-03-26T12:14:32.044Z,0.45
2023-03-26T12:17:00.874Z,0.30
2023-03-26T12:19:39.487Z,0.60
2023-03-26T12:22:26.266Z,0.30
2023-03-26T12:25:02.567Z,0.40
2023-03-26T12:27:30.908Z,0.55
2023-03-26T12:30:25.727Z,0.40
2023-03-26T12:33:16.450Z,0.35
2023-03-26T12:35:43.722Z,0.40
2023-03-26T12:38:23.735Z,0.60
2023-03-26T12:43:40.481Z,0.40
2023-03-26T12:44:49.666Z,0.47
2023-03-26T12:48:01.103Z,0.40
2023-03-26T12:50:15.311Z,0.30
2023-03-26T12:52:45.183Z,0.20
2023-03-26T12:55:38.250Z,0.57
2023-03-26T12:58:39.539Z,0.40
2023-03-26T13:01:26.226Z,0.45
2023-03-26T13:04:14.507Z,0.50
2023-03-26T13:07:01.487Z,0.43
2023-03-26T13:10:08.544Z,0.40
2023-03-26T13:13:08.629Z,0.50
2023-03-26T13:15:35.336Z,0.30
2023-03-26T13:18:45.087Z,0.30
2023-03-26T13:21:35.049Z,0.30
2023-03-26T13:24:21.546Z,0.30
2023-03-26T13:27:08.932Z,0.38
2023-03-26T13:29:43.700Z,0.35
2023-03-26T13:32:57.373Z,0.28
2023-03-26T13:35:39.298Z,0.38
2023-03-26T13:38:29.689Z,0.30
2023-03-26T13:41:02.720Z,0.50
2023-03-26T13:43:37.249Z,0.20
2023-03-26T13:46:16.805Z,0.20
2023-03-26T13:48:53.043Z,0.30
2023-03-26T13:51:43.053Z,0.20
2023-03-26T13:54:30.554Z,0.30
2023-03-26T13:57:29.452Z,0.20
2023-03-26T14:00:13.914Z,0.20
2023-03-26T14:02:43.084Z,0.25
2023-03-26T14:05:15.241Z,0.20
2023-03-26T14:07:47.691Z,0.20
2023-03-26T14:10:23.795Z,0.30
2023-03-26T14:13:04.477Z,0.30
2023-03-26T14:15:42.159Z,0.20
2023-03-26T14:18:50.078Z,0.30
2023-03-26T14:21:35.725Z,0.20
2023-03-26T14:24:33.742Z,0.20
2023-03-26T14:27:45.381Z,0.10
2023-03-26T14:30:27.176Z,0.38
2023-03-26T14:33:27.161Z,0.13
2023-03-26T14:36:30.020Z,0.30
2023-03-26T14:39:22.583Z,0.28
2023-03-26T14:41:57.157Z,0.28
2023-03-26T14:45:05.887Z,0.22
2023-03-26T14:47:43.927Z,0.20
2023-03-26T14:50:31.531Z,0.22
2023-03-26T14:53:01.911Z,0.20
2023-03-26T14:55:50.808Z,0.98
2023-03-26T14:58:36.103Z,0.13
2023-03-26T15:01:22.850Z,0.10
2023-03-26T15:04:28.457Z,0.25
2023-03-26T15:07:23.184Z,0.30
2023-03-26T15:10:18.113Z,0.32
2023-03-26T15:13:12.564Z,0.20
2023-03-26T15:15:53.929Z,0.20
2023-03-26T15:18:55.953Z,0.10
2023-03-26T15:21:25.791Z,0.20
2023-03-26T15:24:26.909Z,0.30
2023-03-26T15:27:17.791Z,0.00
2023-03-26T15:30:15.161Z,0.20
2023-03-26T15:33:05.271Z,0.30
2023-03-26T15:35:41.329Z,0.17
2023-03-26T15:38:42.880Z,0.28
2023-03-26T15:41:37.850Z,0.10
2023-03-26T15:44:23.325Z,0.22
2023-03-26T15:46:56.318Z,0.30
2023-03-26T15:49:49.270Z,0.20
2023-03-26T15:52:33.157Z,0.08
2023-03-26T15:55:10.637Z,0.40
2023-03-26T15:58:02.444Z,0.20
2023-03-26T16:00:35.044Z,0.30
2023-03-26T16:03:10.935Z,0.20
2023-03-26T16:05:47.508Z,0.25
2023-03-26T16:08:24.566Z,0.30
2023-03-26T16:10:57.307Z,0.20
2023-03-26T16:13:30.626Z,0.43
2023-03-26T16:18:31.118Z,0.50
2023-03-26T16:21:31.994Z,0.57
2023-03-26T16:24:02.142Z,0.80
2023-03-26T16:26:44.590Z,0.20
2023-03-26T16:29:14.392Z,0.50
2023-03-26T16:32:09.679Z,0.60
2023-03-26T16:34:51.053Z,0.20
2023-03-26T16:37:36.582Z,0.40
2023-03-26T16:40:20.706Z,0.40
2023-03-26T16:43:36.194Z,0.40
2023-03-26T16:46:30.543Z,0.40
2023-03-26T16:49:21.008Z,1.00
2023-03-26T16:51:57.157Z,0.60
2023-03-26T16:54:33.341Z,0.70
2023-03-26T16:57:26.064Z,0.65
2023-03-26T17:00:23.527Z,0.38
2023-03-26T17:03:08.081Z,1.02
2023-03-26T17:05:51.205Z,1.00
2023-03-26T17:08:42.664Z,0.68
2023-03-26T17:11:22.698Z,0.95
2023-03-26T17:14:12.080Z,0.95
2023-03-26T17:16:48.694Z,0.95
2023-03-26T17:19:29.659Z,0.85
2023-03-26T17:22:11.156Z,1.17
2023-03-26T17:24:53.139Z,1.00
2023-03-26T17:27:55.796Z,0.80
2023-03-26T17:30:22.760Z,1.02
2023-03-26T17:32:54.306Z,1.08
2023-03-26T17:35:40.374Z,1.08
2023-03-26T17:38:17.692Z,1.30
2023-03-26T17:40:53.051Z,0.80
2023-03-26T17:43:46.151Z,1.17
2023-03-26T17:46:33.267Z,1.00
2023-03-26T17:49:14.769Z,0.98
2023-03-26T17:52:04.145Z,0.80
2023-03-26T17:54:41.174Z,1.42
2023-03-26T17:57:16.701Z,1.27
2023-03-26T17:59:45.546Z,1.20
2023-03-26T18:02:30.112Z,1.10
2023-03-26T18:04:57.639Z,0.90
2023-03-26T18:08:08.170Z,1.13
2023-03-26T18:10:52.199Z,1.02
2023-03-26T18:13:18.976Z,1.20
2023-03-26T18:16:24.433Z,0.88
2023-03-26T18:19:00.155Z,1.15
2023-03-26T18:21:37.535Z,1.30
2023-03-26T18:24:07.098Z,1.50
2023-03-26T18:26:39.859Z,1.33
2023-03-26T18:29:42.913Z,1.30
2023-03-26T18:32:10.069Z,2.05
2023-03-26T18:34:50.074Z,1.42
2023-03-26T18:37:34.391Z,1.10
2023-03-26T18:40:18.303Z,0.75
2023-03-26T18:42:52.353Z,0.50
2023-03-26T18:47:59.858Z,0.98
2023-03-26T18:50:36.920Z,0.55
2023-03-26T18:53:07.039Z,0.70
2023-03-26T18:55:39.554Z,0.85
2023-03-26T18:58:32.800Z,1.10
2023-03-26T19:01:02.309Z,1.35
2023-03-26T19:03:35.497Z,1.10
2023-03-26T19:06:08.259Z,1.48
2023-03-26T19:08:38.929Z,1.60
2023-03-26T19:11:10.789Z,1.08
2023-03-26T19:13:41.900Z,1.17
2023-03-26T19:16:33.914Z,1.38
2023-03-26T19:19:05.263Z,1.55
2023-03-26T19:21:34.391Z,1.17
2023-03-26T19:24:03.734Z,0.77
2023-03-26T19:26:31.541Z,1.60
2023-03-26T19:29:00.752Z,1.30
2023-03-26T19:31:38.792Z,1.63
2023-03-26T19:34:12.087Z,0.80
2023-03-26T19:36:58.135Z,1.38
2023-03-26T19:39:37.341Z,1.48
2023-03-26T19:42:07.955Z,1.17
2023-03-26T19:44:42.083Z,1.75
2023-03-26T19:47:22.040Z,0.80
2023-03-26T19:49:59.079Z,0.50
2023-03-26T19:52:33.900Z,0.95
2023-03-26T19:55:15.533Z,1.30
2023-03-26T19:57:43.188Z,1.42
2023-03-26T20:00:14.268Z,1.13
2023-03-26T20:02:42.354Z,1.23
2023-03-26T20:05:19.440Z,1.20
2023-03-26T20:07:46.240Z,1.52
2023-03-26T20:10:13.417Z,1.38
2023-03-26T20:12:40.539Z,1.83
2023-03-26T20:15:19.474Z,1.85
2023-03-26T20:17:50.002Z,2.05
2023-03-26T20:20:17.530Z,1.65
2023-03-26T20:22:46.314Z,1.85
2023-03-26T20:25:33.874Z,1.58
2023-03-26T20:28:00.715Z,1.40
2023-03-26T20:30:37.515Z,1.50
2023-03-26T20:33:12.090Z,1.80
2023-03-26T20:35:41.547Z,1.80
2023-03-26T20:38:09.837Z,1.67
2023-03-26T20:40:38.554Z,1.95
2023-03-26T20:43:12.100Z,2.10
2023-03-26T20:48:11.990Z,2.15
2023-03-26T20:51:01.829Z,1.95
2023-03-26T20:53:30.481Z,1.90
2023-03-26T20:55:57.830Z,1.77
2023-03-26T20:58:31.506Z,2.15
2023-03-26T21:01:02.558Z,2.97
2023-03-26T21:03:29.636Z,2.13
2023-03-26T21:06:00.822Z,1.83
2023-03-26T21:08:34.073Z,2.28
2023-03-26T21:11:02.221Z,1.30
2023-03-26T21:13:44.354Z,2.15
2023-03-26T21:16:13.136Z,1.77
2023-03-26T21:18:40.217Z,2.38
2023-03-26T21:21:41.974Z,2.10
2023-03-26T21:24:21.059Z,2.28
2023-03-26T21:26:53.061Z,2.92
2023-03-26T21:29:20.109Z,3.05
2023-03-26T21:31:47.487Z,2.78
2023-03-26T21:34:14.465Z,3.58
2023-03-26T21:36:42.110Z,4.38
2023-03-26T21:39:10.984Z,3.85
2023-03-26T21:41:48.537Z,1.58
2023-03-26T21:46:59.822Z,0.50
2023-03-26T21:49:27.128Z,0.70
2023-03-26T21:51:54.493Z,0.40
2023-03-26T21:54:27.346Z,0.88
2023-03-26T21:57:31.183Z,0.60
2023-03-26T22:00:11.299Z,0.60
2023-03-26T22:03:04.734Z,0.82
2023-03-26T22:05:31.644Z,0.57
2023-03-26T22:08:03.972Z,0.65
2023-03-26T22:10:32.037Z,0.50
2023-03-26T22:12:59.536Z,0.40
2023-03-26T22:15:30.404Z,0.70
2023-03-26T22:18:04.213Z,0.35
2023-03-26T22:20:31.256Z,0.30
2023-03-26T22:22:59.132Z,0.30
2023-03-26T22:25:25.938Z,0.60
2023-03-26T22:27:53.904Z,0.40
2023-03-26T22:30:20.905Z,0.32
2023-03-26T22:32:48.914Z,0.32
2023-03-26T22:35:16.617Z,0.70
2023-03-26T22:37:43.797Z,0.85
2023-03-26T22:40:13.519Z,0.50
2023-03-26T22:42:41.499Z,0.60
2023-03-26T22:45:11.833Z,0.30
2023-03-26T22:47:38.972Z,0.60
2023-03-26T22:50:07.724Z,0.50
2023-03-26T22:52:36.514Z,0.30
2023-03-26T22:55:04.813Z,1.80
2023-03-26T22:57:31.964Z,0.50
2023-03-26T23:00:07.692Z,1.02
2023-03-26T23:02:34.798Z,0.95
2023-03-26T23:05:01.734Z,0.82
2023-03-26T23:07:28.837Z,0.65
2023-03-26T23:09:55.636Z,0.60
2023-03-26T23:12:22.909Z,0.65
2023-03-26T23:14:52.918Z,0.80
2023-03-26T23:17:20.051Z,0.73
2023-03-26T23:19:46.903Z,0.60
2023-03-26T23:22:13.975Z,0.40
2023-03-26T23:24:40.857Z,0.57
2023-03-26T23:27:08.605Z,0.60
2023-03-26T23:29:36.494Z,0.70
2023-03-26T23:32:03.689Z,0.80
2023-03-26T23:34:52.138Z,1.00
2023-03-26T23:37:23.175Z,1.15
2023-03-26T23:39:53.711Z,0.65
2023-03-26T23:42:29.290Z,0.85
2023-03-26T23:44:57.588Z,1.20
2023-03-26T23:47:24.806Z,1.17
2023-03-26T23:49:51.661Z,1.17
2023-03-26T23:52:18.798Z,0.82
2023-03-26T23:54:45.678Z,1.20
2023-03-26T23:57:13.831Z,1.10
2023-03-26T23:59:41.508Z,0.75
